Mary Bennett — WDC4592 — position and weather

sailwx.info

Track history (hours):
 
Tides and Currents Weather Stations Pressure Air Temp Water Temp Dewpoint Dewpoint Depression Visibility Wind Speed Wind Dir Waves Ship Positions

Mary Bennett

Owner: Savannah Marine Services, Savannah, GA. More information available from US FCC via Universal Licensing System and Coast Guard Vessel Documentation Center.

Last reported at 2018-Apr-20 14:02 UTC. Time now 2018-Apr-23 17:03 UTC.
Position N 31°45' W 081°10'.

Length 21 m; draft 2.3 m.

Type: Tug. MMSI: 367027140.

Date/timePositionNaut miles runAvg speedWind from/ knotsBaromVisibWave heightAir tempDewpointWater temp
2018-Apr-20 14:02N 31°45' W 081°10'0 3.1
2018-Apr-20 13:58N 31°45' W 081°10'2 3.6
2018-Apr-20 13:29N 31°47' W 081°10'2 2.8
2018-Apr-20 12:49N 31°49' W 081°11'1 3.4
2018-Apr-20 12:27N 31°49' W 081°10'2 5.7
2018-Apr-20 12:00N 31°51' W 081°08'2 4.1
2018-Apr-20 11:26N 31°52' W 081°05'1 2.0
2018-Apr-20 11:00N 31°52' W 081°04'0 0.6
2018-Apr-20 10:29N 31°52' W 081°04'0 0.1
2018-Apr-20 10:00N 31°52' W 081°04'0 0.1
2018-Apr-20 09:19N 31°52' W 081°04'0 0.2
2018-Apr-20 08:54N 31°52' W 081°04'0 0.1
2018-Apr-20 08:27N 31°52' W 081°04'0 0.3
2018-Apr-20 07:58N 31°52' W 081°04'0 0.5
2018-Apr-20 07:28N 31°52' W 081°04'0 0.2
2018-Apr-20 07:00N 31°52' W 081°04'0 0.9
2018-Apr-20 06:29N 31°52' W 081°04'2 4.1
2018-Apr-20 06:00N 31°54' W 081°06'2 3.2
2018-Apr-20 05:30N 31°55' W 081°05'1 2.7
2018-Apr-20 05:00N 31°57' W 081°04'2 4.3
2018-Apr-20 04:30N 31°59' W 081°03'1 3.0
2018-Apr-20 04:01N 31°59' W 081°02'2 3.7
2018-Apr-20 03:30N 32°01' W 081°02'1 3.0
2018-Apr-20 03:00N 32°03' W 081°02'2 3.5
2018-Apr-20 02:30N 32°04' W 081°01'2 4.1
2018-Apr-20 01:59N 32°04' W 080°59'1 2.2
2018-Apr-20 01:30N 32°05' W 080°59'2 3.1
2018-Apr-20 01:00N 32°06' W 081°01'2 3.3
2018-Apr-20 00:30N 32°05' W 081°02'2 3.1
2018-Apr-20 00:00N 32°05' W 081°04'1 2.3
2018-Apr-19 23:30N 32°05' W 081°06'0 0.1
2018-Apr-19 23:00N 32°05' W 081°06'0 0.0
2018-Apr-19 22:30N 32°05' W 081°06'1 2.0
2018-Apr-19 22:00N 32°06' W 081°07'0 0.0
2018-Apr-19 21:30N 32°06' W 081°07'1 1.8
2018-Apr-19 21:00N 32°05' W 081°06'0 0.0
2018-Apr-18 21:23N 32°05' W 081°06'0 0.0
2018-Apr-18 21:00N 32°05' W 081°06'0 0.0
2018-Apr-18 20:30N 32°05' W 081°06'0 0.0
2018-Apr-18 20:00N 32°05' W 081°06'0 0.0
2018-Apr-18 19:30N 32°05' W 081°06'0 0.0
2018-Apr-18 19:00N 32°05' W 081°06'0 0.0
2018-Apr-18 18:30N 32°05' W 081°06'0 0.0
2018-Apr-18 18:00N 32°05' W 081°06'0 0.0
2018-Apr-18 17:30N 32°05' W 081°06'0 0.0
2018-Apr-18 17:00N 32°05' W 081°06'0 0.0
2018-Apr-18 16:30N 32°05' W 081°06'0 0.0
2018-Apr-18 16:00N 32°05' W 081°06'0 0.0
2018-Apr-18 15:30N 32°05' W 081°06'0 0.2
2018-Apr-18 15:00N 32°05' W 081°06'0 0.1
2018-Apr-18 14:30N 32°05' W 081°06'2 3.6
2018-Apr-18 14:00N 32°05' W 081°03'1 2.8
2018-Apr-18 13:30N 32°05' W 081°02'2 4.1
2018-Apr-18 12:59N 32°05' W 080°59'2 4.6
2018-Apr-18 12:30N 32°05' W 080°57'2 3.1
2018-Apr-18 12:00N 32°05' W 080°55'2 3.8
2018-Apr-18 11:30N 32°06' W 080°54'2 3.7
2018-Apr-18 11:00N 32°08' W 080°52'3 5.7
2018-Apr-18 10:30N 32°09' W 080°49'2 4.3
2018-Apr-18 10:00N 32°11' W 080°48'2 4.2
2018-Apr-18 09:30N 32°13' W 080°47'1 2.9
2018-Apr-18 09:00N 32°14' W 080°46'2 3.9
2018-Apr-18 08:22N 32°16' W 080°44'  
2018-Apr-13 09:54N 34°43' W 076°57'3 5.0
2018-Apr-13 09:24N 34°43' W 076°54'2 4.8
2018-Apr-13 08:59N 34°43' W 076°52'2 4.6
2018-Apr-13 08:30N 34°43' W 076°49'3 5.3
2018-Apr-13 08:00N 34°43' W 076°46'3 5.1
2018-Apr-13 07:31N 34°43' W 076°43'2 4.1
2018-Apr-13 07:00N 34°44' W 076°41'2 4.2
2018-Apr-13 06:30N 34°46' W 076°41'3 5.5
2018-Apr-13 06:00N 34°49' W 076°41'2 4.1
2018-Apr-13 05:30N 34°51' W 076°41'2 4.7
2018-Apr-13 05:00N 34°54' W 076°41'3 4.7
2018-Apr-13 04:23N 34°56' W 076°39'107 3.3
2018-Apr-11 20:02N 36°39' W 076°04'8 0.3
2018-Apr-10 17:22N 36°43' W 076°12'5 1.9
2018-Apr-10 14:49N 36°43' W 076°06'2 5.4
2018-Apr-10 14:25N 36°41' W 076°04'  
Track history (hours):
 
Tides and Currents Weather Stations Pressure Air Temp Water Temp Dewpoint Dewpoint Depression Visibility Wind Speed Wind Dir Waves Ship Positions

Mary Bennett

Owner: Savannah Marine Services, Savannah, GA. More information available from US FCC via Universal Licensing System and Coast Guard Vessel Documentation Center.

Last reported at 2018-Apr-20 14:02 UTC. Time now 2018-Apr-23 17:03 UTC.
Position N 31°45' W 081°10'.

Length 21 m; draft 2.3 m.

Type: Tug. MMSI: 367027140.

Date/timePositionNaut miles runAvg speedWind from/ knotsBaromVisibWave heightAir tempDewpointWater temp
2018-Apr-20 14:02N 31°45' W 081°10'0 3.1
2018-Apr-20 13:58N 31°45' W 081°10'2 3.6
2018-Apr-20 13:29N 31°47' W 081°10'2 2.8
2018-Apr-20 12:49N 31°49' W 081°11'1 3.4
2018-Apr-20 12:27N 31°49' W 081°10'2 5.7
2018-Apr-20 12:00N 31°51' W 081°08'2 4.1
2018-Apr-20 11:26N 31°52' W 081°05'1 2.0
2018-Apr-20 11:00N 31°52' W 081°04'0 0.6
2018-Apr-20 10:29N 31°52' W 081°04'0 0.1
2018-Apr-20 10:00N 31°52' W 081°04'0 0.1
2018-Apr-20 09:19N 31°52' W 081°04'0 0.2
2018-Apr-20 08:54N 31°52' W 081°04'0 0.1
2018-Apr-20 08:27N 31°52' W 081°04'0 0.3
2018-Apr-20 07:58N 31°52' W 081°04'0 0.5
2018-Apr-20 07:28N 31°52' W 081°04'0 0.2
2018-Apr-20 07:00N 31°52' W 081°04'0 0.9
2018-Apr-20 06:29N 31°52' W 081°04'2 4.1
2018-Apr-20 06:00N 31°54' W 081°06'2 3.2
2018-Apr-20 05:30N 31°55' W 081°05'1 2.7
2018-Apr-20 05:00N 31°57' W 081°04'2 4.3
2018-Apr-20 04:30N 31°59' W 081°03'1 3.0
2018-Apr-20 04:01N 31°59' W 081°02'2 3.7
2018-Apr-20 03:30N 32°01' W 081°02'1 3.0
2018-Apr-20 03:00N 32°03' W 081°02'2 3.5
2018-Apr-20 02:30N 32°04' W 081°01'2 4.1
2018-Apr-20 01:59N 32°04' W 080°59'1 2.2
2018-Apr-20 01:30N 32°05' W 080°59'2 3.1
2018-Apr-20 01:00N 32°06' W 081°01'2 3.3
2018-Apr-20 00:30N 32°05' W 081°02'2 3.1
2018-Apr-20 00:00N 32°05' W 081°04'1 2.3
2018-Apr-19 23:30N 32°05' W 081°06'0 0.1
2018-Apr-19 23:00N 32°05' W 081°06'0 0.0
2018-Apr-19 22:30N 32°05' W 081°06'1 2.0
2018-Apr-19 22:00N 32°06' W 081°07'0 0.0
2018-Apr-19 21:30N 32°06' W 081°07'1 1.8
2018-Apr-19 21:00N 32°05' W 081°06'0 0.0
2018-Apr-18 21:23N 32°05' W 081°06'0 0.0
2018-Apr-18 21:00N 32°05' W 081°06'0 0.0
2018-Apr-18 20:30N 32°05' W 081°06'0 0.0
2018-Apr-18 20:00N 32°05' W 081°06'0 0.0
2018-Apr-18 19:30N 32°05' W 081°06'0 0.0
2018-Apr-18 19:00N 32°05' W 081°06'0 0.0
2018-Apr-18 18:30N 32°05' W 081°06'0 0.0
2018-Apr-18 18:00N 32°05' W 081°06'0 0.0
2018-Apr-18 17:30N 32°05' W 081°06'0 0.0
2018-Apr-18 17:00N 32°05' W 081°06'0 0.0
2018-Apr-18 16:30N 32°05' W 081°06'0 0.0
2018-Apr-18 16:00N 32°05' W 081°06'0 0.0
2018-Apr-18 15:30N 32°05' W 081°06'0 0.2
2018-Apr-18 15:00N 32°05' W 081°06'0 0.1
2018-Apr-18 14:30N 32°05' W 081°06'2 3.6
2018-Apr-18 14:00N 32°05' W 081°03'1 2.8
2018-Apr-18 13:30N 32°05' W 081°02'2 4.1
2018-Apr-18 12:59N 32°05' W 080°59'2 4.6
2018-Apr-18 12:30N 32°05' W 080°57'2 3.1
2018-Apr-18 12:00N 32°05' W 080°55'2 3.8
2018-Apr-18 11:30N 32°06' W 080°54'2 3.7
2018-Apr-18 11:00N 32°08' W 080°52'3 5.7
2018-Apr-18 10:30N 32°09' W 080°49'2 4.3
2018-Apr-18 10:00N 32°11' W 080°48'2 4.2
2018-Apr-18 09:30N 32°13' W 080°47'1 2.9
2018-Apr-18 09:00N 32°14' W 080°46'2 3.9
2018-Apr-18 08:22N 32°16' W 080°44'  
2018-Apr-13 09:54N 34°43' W 076°57'3 5.0
2018-Apr-13 09:24N 34°43' W 076°54'2 4.8
2018-Apr-13 08:59N 34°43' W 076°52'2 4.6
2018-Apr-13 08:30N 34°43' W 076°49'3 5.3
2018-Apr-13 08:00N 34°43' W 076°46'3 5.1
2018-Apr-13 07:31N 34°43' W 076°43'2 4.1
2018-Apr-13 07:00N 34°44' W 076°41'2 4.2
2018-Apr-13 06:30N 34°46' W 076°41'3 5.5
2018-Apr-13 06:00N 34°49' W 076°41'2 4.1
2018-Apr-13 05:30N 34°51' W 076°41'2 4.7
2018-Apr-13 05:00N 34°54' W 076°41'3 4.7
2018-Apr-13 04:23N 34°56' W 076°39'107 3.3
2018-Apr-11 20:02N 36°39' W 076°04'8 0.3
2018-Apr-10 17:22N 36°43' W 076°12'5 1.9
2018-Apr-10 14:49N 36°43' W 076°06'2 5.4
2018-Apr-10 14:25N 36°41' W 076°04'  

Dump ship's entire track history